Time;durP1;ratioP1;P1;durP2;ratioP2;P2;SDS_P1;SDS_P2;PMS_P1;PMS_P2;Temp;Humidity;BMP_temperature;BMP_pressure;BME280_temperature;BME280_humidity;BME280_pressure;Samples;Min_cycle;Max_cycle;Signal;HPM_P1;HPM_P2
2022/10/09 00:02:05;;;;;;;7.40;6.10;;;;;;;14.07;74.55;98406.00;6084966;29;20232;-69
2022/10/09 00:05:07;;;;;;;7.50;5.53;;;;;;;14.03;75.23;98402.75;6085311;29;20238;-69
2022/10/09 00:08:09;;;;;;;7.47;5.70;;;;;;;13.97;75.61;98408.53;6084335;29;20244;-70
2022/10/09 00:11:14;;;;;;;8.50;5.73;;;;;;;13.93;75.75;98408.94;6085229;29;20636;-70
2022/10/09 00:14:16;;;;;;;6.63;5.70;;;;;;;13.87;75.76;98405.00;6085394;29;20363;-70
2022/10/09 00:17:18;;;;;;;8.10;5.43;;;;;;;13.83;75.40;98400.91;6085331;29;20228;-69
2022/10/09 00:20:20;;;;;;;8.70;5.00;;;;;;;13.76;75.50;98409.50;6085094;29;20254;-69
2022/10/09 00:23:22;;;;;;;8.03;5.60;;;;;;;13.74;75.23;98390.19;6085308;29;20235;-70
2022/10/09 00:26:25;;;;;;;8.10;5.70;;;;;;;13.75;74.95;98415.75;6084549;29;20239;-70
2022/10/09 00:29:27;;;;;;;7.43;5.27;;;;;;;13.73;74.92;98429.16;6076275;29;20606;-70
2022/10/09 00:32:29;;;;;;;10.40;5.43;;;;;;;13.73;74.79;98429.16;6061955;29;20267;-71
2022/10/09 00:35:31;;;;;;;7.63;5.47;;;;;;;13.73;74.57;98413.22;6060702;29;20256;-70
2022/10/09 00:38:33;;;;;;;6.10;4.30;;;;;;;13.72;74.34;98431.91;6061348;29;20241;-69
2022/10/09 00:41:35;;;;;;;7.67;4.73;;;;;;;13.68;74.56;98433.97;6061313;29;20255;-70
2022/10/09 00:44:59;;;;;;;7.93;4.87;;;;;;;13.63;74.71;98428.19;6062010;29;20624;-70
2022/10/09 00:48:06;;;;;;;7.57;5.40;;;;;;;13.58;75.20;98440.97;6062494;29;20245;-71
2022/10/09 00:51:08;;;;;;;11.70;4.83;;;;;;;13.50;72.63;98430.16;6066097;29;20251;-69
2022/10/09 00:54:14;;;;;;;7.13;4.47;;;;;;;13.48;72.81;98419.66;6066010;29;20252;-69
2022/10/09 00:57:16;;;;;;;6.73;4.47;;;;;;;13.43;72.39;98437.75;6064471;29;20272;-71
2022/10/09 01:00:18;;;;;;;6.40;4.50;;;;;;;13.40;72.75;98440.66;6087090;29;20231;-69
2022/10/09 01:03:20;;;;;;;11.20;4.97;;;;;;;13.41;72.16;98430.88;6072463;29;20211;-70
2022/10/09 01:06:25;;;;;;;7.60;4.40;;;;;;;13.36;72.36;98444.53;6089858;29;20230;-70
2022/10/09 01:09:49;;;;;;;7.27;4.30;;;;;;;13.32;72.79;98440.41;6089384;29;20231;-70
2022/10/09 01:13:06;;;;;;;5.07;4.17;;;;;;;13.25;73.15;98440.06;6089707;29;20265;-70
2022/10/09 01:16:16;;;;;;;7.47;4.20;;;;;;;13.23;72.47;98442.00;6089746;29;20243;-70
2022/10/09 01:19:53;;;;;;;7.07;4.17;;;;;;;13.15;73.20;98443.56;6089095;29;20239;-71
2022/10/09 01:23:32;;;;;;;5.07;3.90;;;;;;;13.10;72.39;98435.94;6078866;29;20721;-69
2022/10/09 01:26:50;;;;;;;6.33;3.97;;;;;;;13.08;73.11;98435.19;6066022;29;20268;-69
2022/10/09 01:30:00;;;;;;;6.37;4.40;;;;;;;13.04;72.99;98446.16;6078979;29;20742;-70
2022/10/09 01:33:04;;;;;;;10.67;4.43;;;;;;;13.01;72.58;98441.09;6089204;29;20742;-70
2022/10/09 01:36:07;;;;;;;7.97;4.27;;;;;;;13.00;72.84;98445.56;6089589;29;20251;-69
2022/10/09 01:39:18;;;;;;;6.63;4.47;;;;;;;12.99;73.19;98438.56;6089592;29;20598;-70
2022/10/09 01:42:24;;;;;;;10.87;4.80;;;;;;;12.96;72.79;98443.28;6087933;29;20702;-69
2022/10/09 01:45:37;;;;;;;6.13;4.30;;;;;;;12.94;73.05;98459.28;6087961;29;20623;-70
2022/10/09 01:48:39;;;;;;;11.47;5.40;;;;;;;12.90;73.42;98463.13;6103001;29;20279;-70
2022/10/09 01:51:56;;;;;;;4.33;3.77;;;;;;;12.87;73.60;98480.13;6088175;29;20703;-70
2022/10/09 01:55:11;;;;;;;6.00;4.00;;;;;;;12.85;73.37;98481.19;6089174;29;20703;-69
2022/10/09 01:58:34;;;;;;;4.37;3.90;;;;;;;12.81;73.10;98490.34;6086102;29;20291;-69
2022/10/09 02:01:38;;;;;;;6.50;3.87;;;;;;;12.78;73.44;98490.56;6088912;29;20256;-69
2022/10/09 02:04:42;;;;;;;7.40;3.80;;;;;;;12.69;72.11;98484.16;6087892;29;20318;-70
2022/10/09 02:07:44;;;;;;;4.20;3.33;;;;;;;12.61;71.94;98499.78;6088867;29;20728;-70
2022/10/09 02:10:52;;;;;;;5.97;3.10;;;;;;;12.57;71.89;98504.50;6086872;29;20246;-69
2022/10/09 02:13:54;;;;;;;9.63;4.07;;;;;;;12.53;72.13;98507.47;6087214;29;20234;-70
2022/10/09 02:17:15;;;;;;;7.47;5.07;;;;;;;12.49;71.45;98509.50;6087071;29;20262;-70
2022/10/09 02:20:27;;;;;;;5.43;3.30;;;;;;;12.46;71.90;98519.50;6087710;29;20584;-69
2022/10/09 02:23:30;;;;;;;6.87;3.70;;;;;;;12.42;72.09;98512.72;6071563;29;20440;-69
2022/10/09 02:26:32;;;;;;;5.17;3.23;;;;;;;12.31;72.15;98510.88;6086744;29;20240;-68
2022/10/09 02:29:38;;;;;;;7.37;3.30;;;;;;;12.25;71.91;98516.63;6073059;29;20232;-69
2022/10/09 02:32:41;;;;;;;7.33;3.67;;;;;;;12.16;72.05;98515.50;6087456;29;20228;-70
2022/10/09 02:35:44;;;;;;;5.10;3.17;;;;;;;12.06;71.57;98519.78;6087554;29;20387;-70
2022/10/09 02:38:46;;;;;;;3.83;2.83;;;;;;;12.00;72.19;98527.28;6088574;29;20246;-69
2022/10/09 02:41:48;;;;;;;10.03;3.30;;;;;;;11.89;72.49;98517.50;6086573;29;20347;-69
2022/10/09 02:44:49;;;;;;;5.03;3.17;;;;;;;11.79;71.48;98527.03;6087558;29;20231;-70
2022/10/09 02:47:52;;;;;;;5.87;3.67;;;;;;;11.74;72.18;98521.22;6087035;29;20239;-69
2022/10/09 02:50:53;;;;;;;5.13;3.10;;;;;;;11.62;71.87;98530.03;6086739;29;20232;-69
2022/10/09 02:53:55;;;;;;;4.27;3.20;;;;;;;11.48;71.94;98526.53;6086477;29;20248;-70
2022/10/09 02:56:57;;;;;;;7.37;3.10;;;;;;;11.40;71.96;98531.53;6086181;29;20236;-69
2022/10/09 02:59:59;;;;;;;5.57;2.90;;;;;;;11.29;72.63;98538.50;6069391;29;20232;-69
2022/10/09 03:03:01;;;;;;;6.30;2.70;;;;;;;11.17;72.81;98534.94;6063231;29;20239;-70
2022/10/09 03:06:18;;;;;;;6.50;2.50;;;;;;;11.06;73.54;98543.59;6047336;29;20210;-69
2022/10/09 03:09:19;;;;;;;4.60;2.57;;;;;;;10.97;73.25;98543.38;6045780;29;20667;-70
2022/10/09 03:12:21;;;;;;;3.47;1.90;;;;;;;10.90;73.71;98547.38;6063511;29;20618;-69
2022/10/09 03:15:24;;;;;;;4.90;2.70;;;;;;;10.85;72.99;98545.06;6062883;29;20766;-70
2022/10/09 03:18:25;;;;;;;5.90;2.50;;;;;;;10.76;73.92;98548.31;6062642;29;20604;-69
2022/10/09 03:21:27;;;;;;;5.47;2.40;;;;;;;10.66;73.88;98541.97;6062625;29;20472;-69
2022/10/09 03:24:29;;;;;;;7.13;2.63;;;;;;;10.58;74.68;98547.72;6062620;29;20572;-69
2022/10/09 03:27:31;;;;;;;4.93;2.40;;;;;;;10.53;74.76;98549.00;6063343;29;20239;-70
2022/10/09 03:30:33;;;;;;;6.43;2.53;;;;;;;10.48;73.90;98551.13;6086131;29;20243;-69
2022/10/09 03:33:36;;;;;;;4.60;2.60;;;;;;;10.44;74.65;98554.88;6085633;29;20615;-70
2022/10/09 03:36:38;;;;;;;4.40;2.47;;;;;;;10.32;75.64;98546.81;6086230;29;20256;-70
2022/10/09 03:39:40;;;;;;;3.37;2.40;;;;;;;10.24;75.86;98550.91;6085943;29;20241;-69
2022/10/09 03:42:41;;;;;;;4.53;2.30;;;;;;;10.16;76.17;98547.91;6086509;29;20236;-70
2022/10/09 03:45:43;;;;;;;4.47;2.60;;;;;;;10.06;76.51;98555.56;6086317;29;20241;-69
2022/10/09 03:48:45;;;;;;;5.23;2.60;;;;;;;10.00;77.46;98556.78;6085130;29;20234;-68
2022/10/09 03:51:47;;;;;;;4.70;2.60;;;;;;;9.96;77.69;98560.56;6084927;29;20253;-69
2022/10/09 03:54:49;;;;;;;4.10;2.43;;;;;;;9.95;77.59;98558.03;6085231;29;20245;-70
2022/10/09 03:57:51;;;;;;;4.17;2.77;;;;;;;9.94;77.62;98553.69;6085651;29;20697;-70
2022/10/09 04:00:53;;;;;;;3.70;2.73;;;;;;;9.91;78.34;98559.16;6085775;29;20709;-69
2022/10/09 04:03:55;;;;;;;5.27;2.87;;;;;;;9.81;78.25;98564.16;6085009;29;20323;-69
2022/10/09 04:06:57;;;;;;;5.67;2.70;;;;;;;9.69;79.42;98566.72;6085702;29;20243;-69
2022/10/09 04:09:59;;;;;;;6.53;2.43;;;;;;;9.57;79.92;98571.00;6086110;29;20721;-70
2022/10/09 04:13:01;;;;;;;4.33;2.47;;;;;;;9.44;80.53;98576.16;6085077;29;20244;-70
2022/10/09 04:16:04;;;;;;;4.50;2.60;;;;;;;9.30;80.64;98567.38;6083979;29;20257;-70
2022/10/09 04:19:06;;;;;;;3.53;2.00;;;;;;;9.19;82.22;98575.94;6085289;29;20237;-69
2022/10/09 04:22:07;;;;;;;4.33;2.57;;;;;;;9.07;82.86;98574.91;6084475;29;20643;-69
2022/10/09 04:25:09;;;;;;;5.93;2.43;;;;;;;9.04;83.71;98576.88;6084504;29;20240;-69
2022/10/09 04:28:12;;;;;;;5.80;2.63;;;;;;;8.95;83.69;98574.78;6085671;29;20240;-70
2022/10/09 04:31:14;;;;;;;4.60;3.17;;;;;;;9.01;83.00;98567.38;6046695;29;20250;-70
2022/10/09 04:34:16;;;;;;;5.87;2.93;;;;;;;9.07;82.60;98572.28;6061957;29;20377;-69
2022/10/09 04:37:18;;;;;;;5.90;2.90;;;;;;;8.95;82.86;98580.06;6062129;29;20652;-69
2022/10/09 04:40:20;;;;;;;5.90;2.83;;;;;;;8.83;84.07;98585.09;6060722;29;20257;-70
2022/10/09 04:43:22;;;;;;;5.10;2.77;;;;;;;8.79;84.33;98586.22;6062436;29;20241;-70
2022/10/09 04:46:24;;;;;;;5.20;2.67;;;;;;;8.75;84.52;98583.88;6061491;29;20237;-70
2022/10/09 04:49:25;;;;;;;6.43;2.97;;;;;;;8.66;84.06;98594.94;6062188;29;20241;-69
2022/10/09 04:52:28;;;;;;;9.87;3.07;;;;;;;8.55;84.41;98592.06;6060666;29;20594;-70
2022/10/09 04:55:30;;;;;;;6.50;3.23;;;;;;;8.46;84.74;98596.06;6062471;29;20238;-70
2022/10/09 04:58:35;;;;;;;4.37;2.83;;;;;;;8.36;85.24;98593.13;6052206;29;20715;-69
2022/10/09 05:01:38;;;;;;;5.37;2.60;;;;;;;8.27;85.01;98588.34;6083570;29;20236;-70
2022/10/09 05:04:40;;;;;;;4.27;2.43;;;;;;;8.19;86.33;98587.06;6084089;29;20276;-69
2022/10/09 05:07:42;;;;;;;4.03;2.43;;;;;;;8.09;86.47;98592.84;6069039;29;20273;-69
2022/10/09 05:10:44;;;;;;;4.97;2.33;;;;;;;8.00;85.91;98598.59;6084952;29;21010;-69
2022/10/09 05:13:48;;;;;;;3.70;2.37;;;;;;;7.90;86.82;98596.56;6085292;29;20240;-70
2022/10/09 05:16:53;;;;;;;3.27;2.37;;;;;;;7.86;87.81;98600.31;6084104;29;20236;-70
2022/10/09 05:20:15;;;;;;;4.33;2.33;;;;;;;7.84;87.66;98610.91;6085136;29;20244;-70
2022/10/09 05:23:17;;;;;;;5.57;2.50;;;;;;;7.80;87.41;98609.34;6083929;29;20718;-70
2022/10/09 05:26:21;;;;;;;4.10;2.50;;;;;;;7.79;88.02;98613.75;6085100;29;20239;-69
2022/10/09 05:29:23;;;;;;;6.23;3.00;;;;;;;7.77;88.18;98610.41;6076492;29;20719;-69
2022/10/09 05:32:25;;;;;;;5.60;2.53;;;;;;;7.78;88.58;98616.50;6062131;29;20749;-69
2022/10/09 05:35:27;;;;;;;5.67;2.40;;;;;;;7.80;88.84;98614.63;6065832;29;20241;-69
2022/10/09 05:38:32;;;;;;;3.07;2.30;;;;;;;7.82;88.81;98614.53;6065037;29;20228;-69
2022/10/09 05:41:34;;;;;;;3.27;2.50;;;;;;;7.83;89.00;98624.97;6048630;29;20240;-69
2022/10/09 05:44:36;;;;;;;3.63;2.60;;;;;;;7.83;88.82;98630.22;6063600;29;20246;-69
2022/10/09 05:47:38;;;;;;;5.50;2.33;;;;;;;7.83;89.18;98632.84;6064596;29;20233;-70
2022/10/09 05:50:40;;;;;;;5.47;2.43;;;;;;;7.81;89.61;98636.47;6064439;29;20387;-69
2022/10/09 05:53:44;;;;;;;4.23;2.60;;;;;;;7.82;89.88;98648.69;6065352;29;20319;-70
2022/10/09 05:56:46;;;;;;;4.77;2.60;;;;;;;7.82;89.59;98644.28;6064670;29;20232;-70
2022/10/09 05:59:48;;;;;;;3.10;2.43;;;;;;;7.83;90.00;98647.78;6081440;29;20568;-69
2022/10/09 06:02:50;;;;;;;4.00;2.40;;;;;;;7.83;90.49;98656.50;6088200;29;20243;-70
2022/10/09 06:06:00;;;;;;;4.37;2.37;;;;;;;7.87;90.61;98646.69;6086454;29;20375;-69
2022/10/09 06:09:04;;;;;;;4.67;2.70;;;;;;;7.90;90.18;98649.13;6087649;29;20224;-70
2022/10/09 06:12:06;;;;;;;5.90;2.50;;;;;;;7.96;89.86;98652.28;6087838;29;20272;-70
2022/10/09 06:15:10;;;;;;;4.43;2.47;;;;;;;8.02;90.01;98658.97;6087911;29;20368;-70
2022/10/09 06:18:16;;;;;;;4.40;2.60;;;;;;;8.07;89.98;98663.06;6070790;29;20212;-69
2022/10/09 06:21:18;;;;;;;5.43;2.70;;;;;;;8.12;90.45;98665.44;6088223;29;20227;-69
2022/10/09 06:24:24;;;;;;;3.73;2.50;;;;;;;8.22;89.08;98671.03;6087210;29;20245;-69
2022/10/09 06:27:30;;;;;;;5.07;2.50;;;;;;;8.33;89.56;98669.56;6087031;29;20231;-68
2022/10/09 06:30:32;;;;;;;5.53;2.50;;;;;;;8.42;88.44;98670.81;6069491;29;20232;-69
2022/10/09 06:33:41;;;;;;;5.43;2.70;;;;;;;8.49;87.78;98677.44;6064025;29;20243;-68
2022/10/09 06:36:44;;;;;;;5.53;2.70;;;;;;;8.61;87.87;98671.47;6063326;29;20240;-69
2022/10/09 06:39:46;;;;;;;4.20;2.40;;;;;;;8.83;86.28;98673.75;6064248;29;20244;-68
2022/10/09 06:42:49;;;;;;;2.50;2.03;;;;;;;8.93;86.04;98677.53;6063395;29;20228;-69
2022/10/09 06:45:52;;;;;;;3.93;2.27;;;;;;;9.03;85.56;98677.84;6062307;29;20735;-70
2022/10/09 06:48:55;;;;;;;3.73;1.90;;;;;;;9.18;84.30;98671.72;6063792;29;20224;-69
2022/10/09 06:51:57;;;;;;;7.47;2.63;;;;;;;9.30;81.86;98678.88;6063167;29;20714;-68
2022/10/09 06:54:59;;;;;;;4.83;2.20;;;;;;;9.44;82.23;98681.53;6062950;29;20793;-68
2022/10/09 06:58:01;;;;;;;5.90;2.03;;;;;;;9.49;82.24;98675.97;6049654;29;20232;-70
2022/10/09 07:01:07;;;;;;;3.73;2.30;;;;;;;9.58;80.32;98672.81;6083705;29;20221;-69
2022/10/09 07:04:12;;;;;;;6.17;2.10;;;;;;;9.70;80.03;98677.31;6085858;29;20326;-70
2022/10/09 07:07:14;;;;;;;2.67;2.17;;;;;;;9.80;79.40;98685.53;6084092;29;20747;-68
2022/10/09 07:10:16;;;;;;;4.97;2.00;;;;;;;9.93;79.05;98689.13;6085676;29;20228;-66
2022/10/09 07:13:23;;;;;;;6.20;2.17;;;;;;;10.02;77.80;98693.81;6084626;29;20253;-69
2022/10/09 07:16:31;;;;;;;5.27;2.17;;;;;;;10.05;77.87;98698.06;6086022;29;20251;-69
2022/10/09 07:19:33;;;;;;;3.03;1.77;;;;;;;10.10;77.32;98699.47;6084057;29;20535;-69
2022/10/09 07:22:35;;;;;;;3.17;2.13;;;;;;;10.13;76.19;98698.44;6085828;29;20226;-69
2022/10/09 07:25:37;;;;;;;4.00;2.20;;;;;;;10.25;75.21;98698.56;6084309;29;20249;-70
2022/10/09 07:28:40;;;;;;;2.83;1.80;;;;;;;10.37;74.93;98709.28;6080176;29;20781;-69
2022/10/09 07:31:42;;;;;;;3.33;1.73;;;;;;;10.46;75.30;98711.34;6086750;29;20242;-71
2022/10/09 07:34:44;;;;;;;3.47;1.43;;;;;;;10.54;74.87;98709.91;6084672;29;20836;-70
2022/10/09 07:37:46;;;;;;;4.40;2.13;;;;;;;10.62;73.86;98718.19;6100068;29;20232;-70
2022/10/09 07:40:48;;;;;;;3.90;1.90;;;;;;;10.76;72.78;98722.59;6100222;29;20236;-70
2022/10/09 07:43:50;;;;;;;4.63;1.93;;;;;;;10.93;72.23;98718.84;6100457;29;20234;-70
2022/10/09 07:46:53;;;;;;;5.27;2.20;;;;;;;10.96;69.40;98718.66;6084619;29;20241;-69
2022/10/09 07:49:55;;;;;;;2.10;1.60;;;;;;;11.04;69.36;98716.34;6086455;29;20238;-69
2022/10/09 07:52:57;;;;;;;2.87;1.83;;;;;;;11.31;69.55;98722.44;6086658;29;20244;-70
2022/10/09 07:55:58;;;;;;;4.77;2.00;;;;;;;11.50;68.33;98722.06;6085087;29;20238;-69
2022/10/09 07:59:03;;;;;;;3.90;1.93;;;;;;;11.71;67.54;98712.66;6083975;29;20249;-70
2022/10/09 08:02:05;;;;;;;4.10;1.73;;;;;;;11.97;66.70;98716.22;6085904;29;20541;-70
2022/10/09 08:05:07;;;;;;;4.10;1.70;;;;;;;12.12;65.45;98715.13;6085332;29;20592;-69
2022/10/09 08:08:09;;;;;;;3.67;1.80;;;;;;;12.38;64.97;98705.34;6085048;29;20235;-69
2022/10/09 08:11:14;;;;;;;3.03;1.80;;;;;;;12.63;64.66;98693.00;6084740;29;20231;-70
2022/10/09 08:14:17;;;;;;;1.60;1.33;;;;;;;12.77;63.69;98695.50;6084167;29;20247;-70
2022/10/09 08:17:20;;;;;;;3.27;1.67;;;;;;;12.96;62.20;98705.59;6084313;29;20243;-69
2022/10/09 08:20:22;;;;;;;4.57;1.83;;;;;;;13.13;61.21;98708.69;6085447;29;20232;-70
2022/10/09 08:23:24;;;;;;;3.43;1.53;;;;;;;13.35;61.02;98715.06;6085034;29;20238;-70
2022/10/09 08:26:29;;;;;;;3.73;1.70;;;;;;;13.59;60.15;98721.16;6083970;29;20239;-70
2022/10/09 08:29:31;;;;;;;4.37;1.70;;;;;;;13.66;59.49;98714.44;6084442;29;20226;-70
2022/10/09 08:32:39;;;;;;;1.90;1.17;;;;;;;13.79;59.57;98715.19;6084885;29;20319;-69
2022/10/09 08:35:41;;;;;;;3.70;1.93;;;;;;;13.96;58.34;98722.72;6086763;29;20238;-70
2022/10/09 08:38:43;;;;;;;1.50;1.20;;;;;;;14.10;58.10;98712.81;6068126;29;20235;-69
2022/10/09 08:41:51;;;;;;;2.40;1.60;;;;;;;14.26;57.57;98708.00;6085802;29;20597;-69
2022/10/09 08:44:54;;;;;;;2.17;1.30;;;;;;;14.41;57.05;98704.16;6083955;29;20765;-69
2022/10/09 08:48:07;;;;;;;6.27;1.60;;;;;;;14.55;56.45;98714.53;6085529;29;20766;-70
2022/10/09 08:51:19;;;;;;;3.73;1.57;;;;;;;14.44;55.67;98713.69;6084428;29;20270;-70
2022/10/09 08:54:33;;;;;;;3.03;1.47;;;;;;;14.81;54.73;98707.09;6083977;29;20335;-70
2022/10/09 08:57:35;;;;;;;2.53;1.30;;;;;;;14.91;54.61;98708.03;6071784;29;20336;-69
2022/10/09 09:00:44;;;;;;;2.63;1.40;;;;;;;15.25;100.00;60274.75;6077614;29;20234;-70
2022/10/09 09:03:49;;;;;;;3.53;1.30;;;;;;;-144.22;100.00;60274.75;6084130;29;20712;-69
2022/10/09 09:07:19;;;;;;;2.50;1.43;;;;;;;-144.22;100.00;60274.75;6083605;29;20236;-69
2022/10/09 09:10:47;;;;;;;2.60;1.33;;;;;;;15.56;100.00;60274.75;6088618;29;20330;-70
2022/10/09 09:14:21;;;;;;;2.37;1.30;;;;;;;-144.22;100.00;60274.75;6088878;29;20239;-70
2022/10/09 09:17:58;;;;;;;4.63;1.63;;;;;;;-144.22;100.00;60274.75;6088928;29;20581;-69
2022/10/09 09:21:27;;;;;;;2.30;1.67;;;;;;;-144.22;100.00;60274.75;6048063;29;20271;-69
2022/10/09 09:24:46;;;;;;;3.37;1.40;;;;;;;16.13;100.00;60274.75;6088560;29;20251;-69
2022/10/09 09:27:53;;;;;;;2.03;1.40;;;;;;;-144.22;100.00;60274.75;6086444;29;20331;-70
2022/10/09 09:31:01;;;;;;;3.80;1.47;;;;;;;-144.22;100.00;60274.75;6086144;29;20239;-69
2022/10/09 09:34:13;;;;;;;2.70;1.50;;;;;;;-144.22;100.00;60274.75;6086979;29;20384;-69
2022/10/09 09:37:16;;;;;;;3.53;1.30;;;;;;;-144.22;100.00;60274.75;6087832;29;20242;-70
2022/10/09 09:40:19;;;;;;;3.27;1.60;;;;;;;-144.22;100.00;60274.75;6088616;29;20231;-69
2022/10/09 09:43:39;;;;;;;3.33;1.50;;;;;;;17.25;100.00;60274.75;6089129;29;20313;-70
2022/10/09 09:46:45;;;;;;;2.40;1.30;;;;;;;-144.22;100.00;60274.75;6088964;29;20231;-72
2022/10/09 09:49:59;;;;;;;1.60;1.27;;;;;;;-144.22;100.00;60274.75;6070803;29;20255;-71
2022/10/09 09:53:12;;;;;;;2.83;1.47;;;;;;;-144.22;100.00;60274.75;6089065;29;20239;-69
2022/10/09 09:56:16;;;;;;;2.27;1.10;;;;;;;-144.22;100.00;60274.75;6102201;29;20589;-69
2022/10/09 09:59:34;;;;;;;1.90;1.30;;;;;;;-144.22;100.00;60274.75;6087764;29;20224;-68
2022/10/09 10:02:36;;;;;;;1.50;1.10;;;;;;;-144.22;100.00;60274.75;6088322;29;20232;-70
2022/10/09 10:05:39;;;;;;;3.47;1.30;;;;;;;-144.22;100.00;60274.75;6087234;29;20334;-70
2022/10/09 10:08:44;;;;;;;2.10;1.33;;;;;;;-144.22;100.00;60274.75;6087190;29;20322;-70
2022/10/09 10:11:53;;;;;;;4.93;1.50;;;;;;;-144.22;100.00;60274.75;6087431;29;20270;-70
2022/10/09 10:14:55;;;;;;;2.23;1.43;;;;;;;-144.22;100.00;60274.75;6086346;29;20746;-69
2022/10/09 10:18:00;;;;;;;2.53;1.20;;;;;;;-144.22;100.00;60274.75;6087150;29;20263;-70
2022/10/09 10:21:13;;;;;;;4.37;1.60;;;;;;;17.55;100.00;60274.75;6087734;29;20314;-70
2022/10/09 10:24:21;;;;;;;3.07;1.30;;;;;;;-144.22;100.00;60274.75;6087257;29;20307;-70
2022/10/09 10:27:30;;;;;;;1.23;1.00;;;;;;;-144.22;100.00;60274.75;6085613;29;20251;-70
2022/10/09 10:30:36;;;;;;;2.53;1.00;;;;;;;-144.22;100.00;60274.75;6070010;29;20783;-70
2022/10/09 10:33:41;;;;;;;1.83;1.20;;;;;;;-144.22;100.00;60274.75;6062731;29;20251;-70
2022/10/09 10:36:56;;;;;;;6.30;1.33;;;;;;;-144.22;100.00;60274.75;6068328;29;20248;-70
2022/10/09 10:40:21;;;;;;;1.47;0.90;;;;;;;17.86;100.00;60274.75;6063387;29;20530;-71
2022/10/09 10:43:39;;;;;;;1.60;1.07;;;;;;;-144.22;100.00;60274.75;6061620;29;20228;-70
2022/10/09 10:46:47;;;;;;;1.30;1.07;;;;;;;-144.22;100.00;60274.75;6063762;29;20240;-70
2022/10/09 10:49:50;;;;;;;3.07;1.13;;;;;;;-144.22;100.00;60274.75;6063152;29;20712;-70
2022/10/09 10:53:01;;;;;;;2.97;1.20;;;;;;;-144.22;100.00;60274.75;6063429;29;20391;-71
2022/10/09 10:56:34;;;;;;;2.07;1.00;;;;;;;-144.22;100.00;60274.75;6061731;29;20252;-70
2022/10/09 10:59:38;;;;;;;2.53;1.10;;;;;;;-144.22;100.00;60274.75;6058341;29;20244;-70
2022/10/09 11:03:11;;;;;;;1.60;1.00;;;;;;;18.50;100.00;60274.75;6087402;29;20723;-70
2022/10/09 11:06:27;;;;;;;2.43;1.10;;;;;;;-144.22;100.00;60274.75;6086664;29;20272;-70
2022/10/09 11:09:43;;;;;;;2.13;0.90;;;;;;;-144.22;100.00;60274.75;6087517;29;20232;-70
2022/10/09 11:13:00;;;;;;;3.23;1.20;;;;;;;18.66;100.00;60274.75;6085393;29;20719;-70
2022/10/09 11:16:21;;;;;;;4.60;1.07;;;;;;;-144.22;100.00;60274.75;6085981;29;20243;-70
2022/10/09 11:19:56;;;;;;;2.97;0.80;;;;;;;-144.22;100.00;60274.75;6084121;29;20707;-70
2022/10/09 11:23:06;;;;;;;2.53;1.00;;;;;;;18.48;100.00;60274.75;6068054;29;20224;-70
2022/10/09 11:26:37;;;;;;;1.73;1.17;;;;;;;-144.22;100.00;60274.75;6071522;29;20236;-70
2022/10/09 11:29:46;;;;;;;2.90;1.03;;;;;;;-144.22;100.00;60274.75;6048395;29;20240;-70
2022/10/09 11:32:54;;;;;;;1.70;0.90;;;;;;;-144.22;100.00;60274.75;6084749;29;20491;-70
2022/10/09 11:36:10;;;;;;;2.10;1.13;;;;;;;-144.22;100.00;60274.75;6085237;29;20234;-70
2022/10/09 11:39:21;;;;;;;0.83;0.77;;;;;;;18.98;100.00;60274.75;6063050;29;20292;-70
2022/10/09 11:42:25;;;;;;;1.70;1.13;;;;;;;19.08;100.00;60274.75;6061584;29;20605;-70
2022/10/09 11:45:46;;;;;;;3.63;0.90;;;;;;;-144.22;100.00;60274.75;6062669;29;20225;-70
2022/10/09 11:49:12;;;;;;;2.57;0.90;;;;;;;-144.22;100.00;60274.75;6063099;29;20796;-71
2022/10/09 11:52:45;;;;;;;1.30;0.90;;;;;;;-144.22;100.00;60274.75;6076736;29;20239;-70
2022/10/09 11:55:47;;;;;;;1.27;0.90;;;;;;;-144.22;100.00;60274.75;6084258;29;20247;-72
2022/10/09 11:59:00;;;;;;;4.33;0.90;;;;;;;-144.22;100.00;60274.75;6084328;29;20235;-71
2022/10/09 12:02:24;;;;;;;3.13;1.03;;;;;;;20.31;100.00;60274.75;6084119;29;20239;-71
2022/10/09 12:05:40;;;;;;;3.03;1.30;;;;;;;-144.22;100.00;60274.75;6080636;29;20228;-71
2022/10/09 12:08:53;;;;;;;2.17;1.17;;;;;;;20.44;100.00;60274.75;6084422;29;20859;-69
2022/10/09 12:12:06;;;;;;;1.87;1.00;;;;;;;-144.22;100.00;60274.75;6084694;29;20235;-70
2022/10/09 12:15:39;;;;;;;2.20;0.93;;;;;;;-144.22;100.00;60274.75;6084767;29;20239;-70
2022/10/09 12:18:46;;;;;;;2.30;1.30;;;;;;;-144.22;100.00;60274.75;6061576;29;20233;-70
2022/10/09 12:22:06;;;;;;;3.10;1.23;;;;;;;-144.22;100.00;60274.75;6061924;29;20229;-69
2022/10/09 12:25:37;;;;;;;2.30;1.23;;;;;;;-144.22;100.00;60274.75;6062204;29;20729;-70
2022/10/09 12:28:55;;;;;;;3.37;1.17;;;;;;;19.25;100.00;60274.75;6067956;29;20244;-70
2022/10/09 12:32:03;;;;;;;4.00;1.37;;;;;;;-144.22;100.00;60274.75;6061010;29;20240;-71
2022/10/09 12:35:21;;;;;;;3.83;1.33;;;;;;;188.01;100.00;60274.75;6062585;29;20638;-71
2022/10/09 12:38:26;;;;;;;3.50;1.27;;;;;;;-144.22;100.00;60274.75;6061383;29;20605;-70
2022/10/09 12:41:33;;;;;;;5.03;1.63;;;;;;;-144.22;100.00;60274.75;6060353;29;20384;-70
2022/10/09 12:44:40;;;;;;;2.33;1.20;;;;;;;20.41;100.00;60274.75;6066862;29;20236;-70
2022/10/09 12:47:43;;;;;;;2.33;1.10;;;;;;;-144.22;100.00;60274.75;6067729;29;20318;-70
2022/10/09 12:50:45;;;;;;;1.07;0.90;;;;;;;-144.22;100.00;60274.75;6089722;29;20236;-69
2022/10/09 12:53:49;;;;;;;3.40;1.43;;;;;;;20.54;100.00;60274.75;6089354;29;20243;-69
2022/10/09 12:56:54;;;;;;;4.13;1.33;;;;;;;-144.22;100.00;60274.75;6089952;29;20319;-70
2022/10/09 12:59:57;;;;;;;2.10;1.20;;;;;;;-144.22;100.00;60274.75;6071633;29;20233;-70
2022/10/09 13:03:00;;;;;;;2.30;1.10;;;;;;;-144.22;100.00;60274.75;6069947;29;20236;-70
2022/10/09 13:06:06;;;;;;;2.20;1.53;;;;;;;-144.22;100.00;60274.75;6067580;29;20692;-70
2022/10/09 13:09:20;;;;;;;1.60;1.00;;;;;;;-144.22;100.00;60274.75;6071764;29;20688;-70
2022/10/09 13:12:25;;;;;;;3.00;1.37;;;;;;;-144.22;100.00;60274.75;6088840;29;20755;-69
2022/10/09 13:15:34;;;;;;;1.20;1.10;;;;;;;-144.22;100.00;60274.75;6089142;29;20244;-70
2022/10/09 13:18:37;;;;;;;3.60;1.47;;;;;;;24.12;100.00;60274.75;6089191;29;20232;-71
2022/10/09 13:21:39;;;;;;;2.53;1.40;;;;;;;23.89;100.00;60274.75;6089271;29;20227;-70
2022/10/09 13:24:41;;;;;;;1.90;1.10;;;;;;;-144.22;100.00;60274.75;6074694;29;20263;-70
2022/10/09 13:27:43;;;;;;;2.23;0.97;;;;;;;-144.22;100.00;60274.75;6088234;29;20236;-70
2022/10/09 13:30:45;;;;;;;2.90;1.30;;;;;;;-144.22;100.00;60274.75;6076635;29;20335;-70
2022/10/09 13:33:47;;;;;;;2.43;1.47;;;;;;;-144.22;100.00;60274.75;6075634;29;20305;-70
2022/10/09 13:36:50;;;;;;;3.10;1.60;;;;;;;-144.22;100.00;60274.75;6076420;29;20248;-69
2022/10/09 13:39:53;;;;;;;2.17;1.30;;;;;;;-144.22;100.00;60274.75;6076568;29;20303;-70
2022/10/09 13:42:59;;;;;;;2.83;1.40;;;;;;;104.84;100.00;60274.75;6076678;29;20240;-69
2022/10/09 13:46:01;;;;;;;2.10;1.33;;;;;;;-144.22;100.00;60274.75;6076083;29;20247;-70
2022/10/09 13:49:04;;;;;;;1.77;1.03;;;;;;;-144.22;100.00;60274.75;6076728;29;20258;-70
2022/10/09 13:52:06;;;;;;;4.40;1.90;;;;;;;-144.22;100.00;60274.75;6076783;29;20255;-70
2022/10/09 13:55:08;;;;;;;2.50;1.20;;;;;;;25.31;100.00;60274.75;6074465;29;20259;-70
2022/10/09 13:58:10;;;;;;;2.43;1.40;;;;;;;-144.22;100.00;60274.75;6074502;29;20275;-70
2022/10/09 14:01:12;;;;;;;3.10;1.53;;;;;;;20.89;33.75;98479.66;6077547;29;20757;-69
2022/10/09 14:04:15;;;;;;;3.20;1.50;;;;;;;19.54;36.25;98476.31;6075206;29;20259;-70
2022/10/09 14:07:17;;;;;;;2.67;1.40;;;;;;;18.24;39.11;98486.00;6076365;29;20244;-71
2022/10/09 14:10:21;;;;;;;3.40;1.30;;;;;;;18.03;39.16;98475.59;6074577;29;20920;-70
2022/10/09 14:13:24;;;;;;;2.57;1.20;;;;;;;17.66;40.14;98478.34;6059890;29;20817;-70
2022/10/09 14:16:28;;;;;;;4.33;1.70;;;;;;;17.44;41.37;98472.50;6052833;29;21071;-70
2022/10/09 14:19:30;;;;;;;5.87;1.30;;;;;;;17.25;40.89;98458.25;6075693;29;20295;-69
2022/10/09 14:22:32;;;;;;;1.43;1.07;;;;;;;16.80;41.63;98465.22;6076702;29;20746;-70
2022/10/09 14:25:34;;;;;;;2.40;1.40;;;;;;;16.84;41.65;98463.97;6075973;29;20232;-69
2022/10/09 14:28:36;;;;;;;2.20;1.20;;;;;;;16.90;42.09;98461.56;6075260;29;20240;-69
2022/10/09 14:31:38;;;;;;;2.70;1.20;;;;;;;17.12;41.70;98462.22;6075883;29;20239;-70
2022/10/09 14:34:40;;;;;;;1.57;1.00;;;;;;;17.21;41.81;98458.66;6075598;29;20247;-69